Time;durP1;ratioP1;P1;durP2;ratioP2;P2;SDS_P1;SDS_P2;PMS_P1;PMS_P2;Temp;Humidity;BMP_temperature;BMP_pressure;BME280_temperature;BME280_humidity;BME280_pressure;Samples;Min_cycle;Max_cycle;Signal;HPM_P1;HPM_P2
2022/09/04 00:02:05;;;;;;;;;;;;;;;19.04;68.87;95450.38;5088798;28;20016;-64
2022/09/04 00:04:48;;;;;;;;;;;;;;;19.11;68.63;95455.91;5076206;28;20005;-64
2022/09/04 00:07:13;;;;;;;;;;;;;;;19.01;68.93;95453.75;5092207;28;20073;-65
2022/09/04 00:09:38;;;;;;;;;;;;;;;18.98;69.08;95450.97;5072373;28;20359;-64
2022/09/04 00:12:07;;;;;;;;;;;;;;;19.03;68.74;95456.09;5091755;28;20001;-65
2022/09/04 00:14:42;;;;;;;;;;;;;;;19.01;68.93;95456.44;5089987;28;20506;-65
2022/09/04 00:17:12;;;;;;;;;;;;;;;19.00;68.69;95451.41;5091210;28;20500;-65
2022/09/04 00:19:48;;;;;;;;;;;;;;;18.97;68.64;95452.88;5071781;28;20013;-65
2022/09/04 00:22:13;;;;;;;;;;;;;;;18.97;68.67;95452.88;5073485;28;20427;-65
2022/09/04 00:24:41;;;;;;;;;;;;;;;18.96;68.69;95454.81;5072861;28;20009;-64
2022/09/04 00:27:09;;;;;;;;;;;;;;;19.00;68.74;95456.81;5073576;28;20008;-65
2022/09/04 00:29:35;;;;;;;;;;;;;;;19.04;68.36;95461.16;5090363;28;20055;-64
2022/09/04 00:32:00;;;;;;;;;;;;;;;19.08;68.22;95464.69;5089453;28;20044;-65
2022/09/04 00:34:44;;;;;;;;;;;;;;;19.06;68.32;95463.50;5085697;28;20028;-65
2022/09/04 00:37:13;;;;;;;;;;;;;;;19.06;68.20;95466.97;5091522;28;20008;-65
2022/09/04 00:39:49;;;;;;;;;;;;;;;19.05;68.46;95462.72;5088952;28;20017;-64
2022/09/04 00:42:20;;;;;;;;;;;;;;;19.07;68.50;95468.53;5091259;28;20005;-65
2022/09/04 00:45:06;;;;;;;;;;;;;;;19.06;68.28;95464.28;5071981;28;20056;-65
2022/09/04 00:47:42;;;;;;;;;;;;;;;19.11;68.25;95464.00;5072863;28;20013;-65
2022/09/04 00:50:20;;;;;;;;;;;;;;;19.14;67.97;95467.91;5070965;28;20036;-65
2022/09/04 00:52:59;;;;;;;;;;;;;;;19.07;68.56;95467.75;5072858;28;20020;-65
2022/09/04 00:55:40;;;;;;;;;;;;;;;19.08;68.56;95467.38;5089407;28;20019;-65
2022/09/04 00:58:11;;;;;;;;;;;;;;;19.10;68.87;95469.75;5089100;28;20022;-65
2022/09/04 01:00:37;;;;;;;;;;;;;;;19.14;68.74;95473.28;5084600;28;20748;-65
2022/09/04 01:03:10;;;;;;;;;;;;;;;19.18;68.80;95472.25;5070906;28;20012;-65
2022/09/04 01:05:39;;;;;;;;;;;;;;;19.25;68.66;95470.88;5071010;28;20584;-65
2022/09/04 01:08:06;;;;;;;;;;;;;;;19.35;68.23;95473.03;5090973;28;20001;-64
2022/09/04 01:10:37;;;;;;;;;;;;;;;19.41;68.45;95485.09;5070998;28;20020;-65
2022/09/04 01:13:13;;;;;;;;;;;;;;;19.45;68.42;95483.28;5090671;28;20005;-65
2022/09/04 01:15:40;;;;;;;;;;;;;;;19.51;68.17;95479.16;5069991;28;20005;-65
2022/09/04 01:18:11;;;;;;;;;;;;;;;19.60;68.26;95481.66;5072607;28;20017;-65
2022/09/04 01:21:00;;;;;;;;;;;;;;;19.60;68.32;95484.38;5099120;28;20097;-65
2022/09/04 01:23:28;;;;;;;;;;;;;;;19.57;68.60;95479.66;5090368;28;20112;-65
2022/09/04 01:26:00;;;;;;;;;;;;;;;19.58;68.73;95483.91;5089396;28;20013;-65
2022/09/04 01:28:25;;;;;;;;;;;;;;;19.64;68.45;95483.31;5070250;28;20020;-65
2022/09/04 01:30:58;;;;;;;;;;;;;;;19.72;68.23;95489.66;5071210;28;20074;-65
2022/09/04 01:33:23;;;;;;;;;;;;;;;19.72;68.39;95487.72;5071379;28;20016;-64
2022/09/04 01:35:55;;;;;;;;;;;;;;;19.76;68.12;95487.00;5071260;28;20381;-65
2022/09/04 01:38:40;;;;;;;;;;;;;;;19.60;68.93;95495.16;5071169;28;20024;-64
2022/09/04 01:41:35;;;;;;;;;;;;;;;19.53;69.10;95493.06;5063199;28;20451;-65
2022/09/04 01:44:03;;;;;;;;;;;;;;;19.56;69.24;95492.38;5034640;28;20072;-65
2022/09/04 01:46:33;;;;;;;;;;;;;;;18.90;69.07;95398.81;5087894;28;20055;-65
2022/09/04 01:49:07;;;;;;;;;;;;;;;19.60;69.02;95495.16;5089186;28;20013;-65
2022/09/04 01:51:51;;;;;;;;;;;;;;;19.53;69.04;95498.47;5055736;28;20017;-65
2022/09/04 01:54:36;;;;;;;;;;;;;;;19.46;69.25;95495.63;5071143;28;20651;-65
2022/09/04 01:57:05;;;;;;;;;;;;;;;19.38;69.53;95501.97;5088120;28;20013;-65
2022/09/04 01:59:31;;;;;;;;;;;;;;;19.37;69.54;95493.09;5089103;28;20016;-64
2022/09/04 02:02:16;;;;;;;;;;;;;;;19.41;69.59;95491.28;5087126;28;20574;-65
2022/09/04 02:04:41;;;;;;;;;;;;;;;19.47;68.99;95495.25;5052572;28;20010;-64
2022/09/04 02:07:18;;;;;;;;;;;;;;;19.52;68.77;95488.81;5089971;28;20082;-65
2022/09/04 02:09:43;;;;;;;;;;;;;;;19.56;68.64;95494.28;5069811;28;20004;-65
2022/09/04 02:12:14;;;;;;;;;;;;;;;19.54;68.93;95500.03;5088793;28;20027;-66
2022/09/04 02:14:53;;;;;;;;;;;;;;;19.62;68.80;95488.28;5088871;28;20561;-65
2022/09/04 02:17:37;;;;;;;;;;;;;;;19.45;69.13;95494.84;5069210;28;20020;-65
2022/09/04 02:20:21;;;;;;;;;;;;;;;19.44;69.15;95495.16;5087668;28;20013;-65
2022/09/04 02:23:16;;;;;;;;;;;;;;;19.47;69.40;95497.19;5089450;28;20443;-65
2022/09/04 02:25:51;;;;;;;;;;;;;;;19.57;69.38;95496.63;5074073;28;20058;-65
2022/09/04 02:28:35;;;;;;;;;;;;;;;19.64;69.14;95501.41;5071552;28;20059;-65
2022/09/04 02:31:03;;;;;;;;;;;;;;;19.72;68.95;95497.75;5078411;28;20009;-65
2022/09/04 02:33:31;;;;;;;;;;;;;;;19.72;68.91;95493.13;5071141;28;20013;-65
2022/09/04 02:35:59;;;;;;;;;;;;;;;19.72;68.98;95492.34;5069590;28;20013;-65
2022/09/04 02:38:36;;;;;;;;;;;;;;;19.71;68.72;95493.50;5051706;28;20525;-65
2022/09/04 02:41:10;;;;;;;;;;;;;;;19.65;68.61;95497.59;5063343;28;20009;-65
2022/09/04 02:43:44;;;;;;;;;;;;;;;19.62;68.80;95498.31;5069348;28;20489;-65
2022/09/04 02:46:25;;;;;;;;;;;;;;;19.55;68.82;95501.59;5096673;28;20008;-65
2022/09/04 02:49:00;;;;;;;;;;;;;;;19.49;68.88;95498.38;5087231;28;20487;-65
2022/09/04 02:51:42;;;;;;;;;;;;;;;19.50;68.85;95493.78;5069569;28;20052;-65
2022/09/04 02:54:13;;;;;;;;;;;;;;;19.33;69.06;95496.84;5051513;28;20354;-65
2022/09/04 02:56:57;;;;;;;;;;;;;;;19.32;68.93;95496.06;5070590;28;20009;-65
2022/09/04 02:59:34;;;;;;;;;;;;;;;19.25;69.06;95495.91;5080771;28;20017;-65
2022/09/04 03:02:01;;;;;;;;;;;;;;;19.20;69.20;95496.19;5088509;28;20013;-65
2022/09/04 03:04:34;;;;;;;;;;;;;;;19.27;68.99;95501.72;5087433;28;20005;-65
2022/09/04 03:06:59;;;;;;;;;;;;;;;19.28;68.64;95500.59;5089654;28;20012;-65
2022/09/04 03:09:48;;;;;;;;;;;;;;;19.31;68.55;95497.22;5088823;28;20005;-66
2022/09/04 03:12:25;;;;;;;;;;;;;;;19.14;68.42;95503.75;5064599;28;20009;-65
2022/09/04 03:14:57;;;;;;;;;;;;;;;19.16;68.88;95503.41;5059859;28;20445;-65
2022/09/04 03:17:37;;;;;;;;;;;;;;;19.01;69.23;95501.50;5079301;28;20057;-64
2022/09/04 03:20:22;;;;;;;;;;;;;;;18.95;69.17;95507.16;5064995;28;20473;-65
2022/09/04 03:22:53;;;;;;;;;;;;;;;18.94;69.30;95511.00;5087256;28;20419;-65
2022/09/04 03:25:39;;;;;;;;;;;;;;;18.95;69.30;95509.06;5087519;28;20016;-65
2022/09/04 03:28:08;;;;;;;;;;;;;;;18.92;69.18;95510.53;5074877;28;20488;-65
2022/09/04 03:30:34;;;;;;;;;;;;;;;18.87;69.20;95518.09;5082017;28;20061;-65
2022/09/04 03:33:07;;;;;;;;;;;;;;;18.88;69.32;95511.56;5091521;28;20036;-65
2022/09/04 03:35:59;;;;;;;;;;;;;;;18.90;69.22;95514.72;5091038;28;20013;-65
2022/09/04 03:38:32;;;;;;;;;;;;;;;18.91;69.21;95508.97;5090791;28;20017;-65
2022/09/04 03:41:33;;;;;;;;;;;;;;;19.02;68.93;95516.53;5091912;28;20048;-65
2022/09/04 03:44:18;;;;;;;;;;;;;;;18.91;69.30;95522.47;5009788;28;20110;-65
2022/09/04 03:47:01;;;;;;;;;;;;;;;18.84;69.45;95530.38;5079802;28;20500;-65
2022/09/04 03:49:45;;;;;;;;;;;;;;;18.88;69.77;95525.06;5091722;28;20095;-65
2022/09/04 03:52:16;;;;;;;;;;;;;;;18.81;69.65;95519.50;5088442;28;20454;-65
2022/09/04 03:55:14;;;;;;;;;;;;;;;18.78;70.10;95525.56;5073012;28;20022;-66
2022/09/04 03:57:58;;;;;;;;;;;;;;;18.78;70.06;95531.75;5056807;28;20009;-65
2022/09/04 04:00:23;;;;;;;;;;;;;;;18.77;70.06;95521.31;5090543;28;20024;-65
2022/09/04 04:03:05;;;;;;;;;;;;;;;18.75;70.14;95523.59;5072998;28;20016;-65
2022/09/04 04:05:30;;;;;;;;;;;;;;;18.74;70.12;95535.50;5077876;28;20446;-65
2022/09/04 04:08:14;;;;;;;;;;;;;;;18.74;70.27;95538.19;5072820;28;20048;-65
2022/09/04 04:10:57;;;;;;;;;;;;;;;18.80;70.47;95528.72;5073978;28;20009;-65
2022/09/04 04:13:34;;;;;;;;;;;;;;;18.80;70.49;95536.81;5089860;28;20478;-65
2022/09/04 04:16:18;;;;;;;;;;;;;;;18.86;70.56;95538.88;5089870;28;20008;-65
2022/09/04 04:19:05;;;;;;;;;;;;;;;18.90;70.49;95530.91;5090180;28;20016;-65
2022/09/04 04:21:56;;;;;;;;;;;;;;;18.88;70.81;95538.53;5091378;28;20012;-65
2022/09/04 04:24:28;;;;;;;;;;;;;;;18.84;70.60;95543.06;5089536;28;20020;-65
2022/09/04 04:26:56;;;;;;;;;;;;;;;18.87;70.52;95548.53;5092001;28;20091;-65
2022/09/04 04:29:40;;;;;;;;;;;;;;;18.83;70.80;95546.88;5072566;28;20511;-65
2022/09/04 04:32:30;;;;;;;;;;;;;;;18.84;70.92;95551.16;5088562;28;20030;-66
2022/09/04 04:35:00;;;;;;;;;;;;;;;18.83;70.67;95550.34;5091872;28;20051;-65
2022/09/04 04:37:25;;;;;;;;;;;;;;;18.83;70.41;95546.88;5086908;28;20104;-65
2022/09/04 04:40:01;;;;;;;;;;;;;;;18.77;70.55;95551.75;5073375;28;20439;-66
2022/09/04 04:42:45;;;;;;;;;;;;;;;18.74;70.55;95562.44;5089375;28;20009;-65
2022/09/04 04:48:28;;;;;;;;;;;;;;;18.82;70.68;95569.56;5079743;28;20142;-65
2022/09/04 04:51:11;;;;;;;;;;;;;;;18.95;70.24;95571.06;5088861;28;20469;-66
2022/09/04 04:53:56;;;;;;;;;;;;;;;19.03;70.04;95580.88;5091186;28;20009;-65
2022/09/04 04:56:28;;;;;;;;;;;;;;;19.03;69.91;95580.88;5090579;28;20008;-65
2022/09/04 04:59:17;;;;;;;;;;;;;;;19.02;70.13;95586.63;5090515;28;20377;-65
2022/09/04 05:01:48;;;;;;;;;;;;;;;19.00;69.94;95580.81;5090124;28;20546;-66
2022/09/04 05:04:37;;;;;;;;;;;;;;;19.04;69.79;95593.25;5089339;28;20013;-65
2022/09/04 05:07:09;;;;;;;;;;;;;;;19.02;69.98;95598.19;5057426;28;20017;-65
2022/09/04 05:09:46;;;;;;;;;;;;;;;19.04;69.89;95595.97;5091021;28;20012;-65
2022/09/04 05:12:31;;;;;;;;;;;;;;;19.02;69.87;95597.41;5089488;28;20016;-65
2022/09/04 05:15:07;;;;;;;;;;;;;;;19.04;70.01;95603.25;5090363;28;20021;-65
2022/09/04 05:17:35;;;;;;;;;;;;;;;19.10;70.02;95608.06;5089349;28;20477;-65
2022/09/04 05:20:16;;;;;;;;;;;;;;;19.07;70.02;95613.34;5088661;28;20052;-66
2022/09/04 05:22:48;;;;;;;;;;;;;;;19.11;70.08;95615.00;5088909;28;20164;-66
2022/09/04 05:25:18;;;;;;;;;;;;;;;19.16;70.05;95617.44;5090329;28;20016;-65
2022/09/04 05:27:52;;;;;;;;;;;;;;;19.20;69.95;95615.63;5072736;28;20012;-65
2022/09/04 05:30:32;;;;;;;;;;;;;;;19.24;69.97;95623.78;5089011;28;20012;-65
2022/09/04 05:33:03;;;;;;;;;;;;;;;19.29;70.13;95623.53;5070287;28;20035;-65
2022/09/04 05:35:31;;;;;;;;;;;;;;;19.40;70.03;95626.50;5090409;28;20115;-65
2022/09/04 05:38:14;;;;;;;;;;;;;;;19.48;69.83;95630.94;5088901;28;20103;-66
2022/09/04 05:41:00;;;;;;;;;;;;;;;19.54;69.80;95634.94;5090337;28;20087;-62
2022/09/04 05:43:38;;;;;;;;;;;;;;;19.66;69.39;95634.88;5087516;28;20023;-66
2022/09/04 05:46:03;;;;;;;;;;;;;;;19.76;69.34;95636.28;5077045;28;20044;-65
2022/09/04 05:48:31;;;;;;;;;;;;;;;19.74;69.62;95644.69;5089346;28;20113;-65
2022/09/04 05:51:03;;;;;;;;;;;;;;;19.82;69.70;95644.88;5089688;28;20013;-66
2022/09/04 05:53:46;;;;;;;;;;;;;;;19.90;69.77;95649.28;5070509;28;20077;-66
2022/09/04 05:56:18;;;;;;;;;;;;;;;19.93;69.75;95643.97;5070902;28;20016;-65
2022/09/04 05:58:46;;;;;;;;;;;;;;;19.98;70.00;95646.41;5072008;28;20017;-66
2022/09/04 06:01:35;;;;;;;;;;;;;;;20.05;70.04;95656.56;5068070;28;20021;-66
2022/09/04 06:04:06;;;;;;;;;;;;;;;20.09;70.49;95656.66;5088020;28;20005;-66
2022/09/04 06:06:44;;;;;;;;;;;;;;;20.19;70.27;95664.22;5089600;28;20052;-66
2022/09/04 06:09:10;;;;;;;;;;;;;;;20.23;70.49;95657.78;5088083;28;20052;-66
2022/09/04 06:11:48;;;;;;;;;;;;;;;20.38;70.10;95666.19;5089381;28;20047;-66
2022/09/04 06:14:32;;;;;;;;;;;;;;;20.47;70.29;95672.19;5070530;28;20015;-66
2022/09/04 06:17:33;;;;;;;;;;;;;;;19.45;70.39;95510.25;5088504;28;20013;-66
2022/09/04 06:19:58;;;;;;;;;;;;;;;20.52;70.21;95663.78;5023601;28;20018;-64
2022/09/04 06:22:23;;;;;;;;;;;;;;;20.63;70.14;95664.03;5046989;28;20009;-64
2022/09/04 06:24:49;;;;;;;;;;;;;;;20.71;69.87;95676.53;5077256;28;20354;-63
2022/09/04 06:27:29;;;;;;;;;;;;;;;20.90;69.56;95679.25;5070307;28;20031;-64
2022/09/04 06:29:57;;;;;;;;;;;;;;;21.06;69.46;95681.09;5069712;28;20020;-65
2022/09/04 06:32:28;;;;;;;;;;;;;;;21.23;69.37;95675.22;5070548;28;20045;-65
2022/09/04 06:35:08;;;;;;;;;;;;;;;21.39;69.15;95675.13;5084286;28;20086;-66
2022/09/04 06:37:44;;;;;;;;;;;;;;;21.58;68.75;95680.50;5089719;28;20066;-67
2022/09/04 06:40:28;;;;;;;;;;;;;;;21.61;68.58;95679.78;5089612;28;20426;-64
2022/09/04 06:43:05;;;;;;;;;;;;;;;21.77;68.78;95685.06;5069349;28;20107;-64
2022/09/04 06:45:42;;;;;;;;;;;;;;;21.93;68.61;95685.72;5085299;28;20009;-68
2022/09/04 06:48:26;;;;;;;;;;;;;;;21.90;69.00;95685.66;5052030;28;20116;-64
2022/09/04 06:51:07;;;;;;;;;;;;;;;21.90;68.79;95691.84;5088200;28;20529;-69
2022/09/04 06:53:43;;;;;;;;;;;;;;;21.93;69.26;95687.63;5088951;28;20013;-67
2022/09/04 06:56:11;;;;;;;;;;;;;;;22.01;69.68;95681.19;5089730;28;20009;-67
2022/09/04 06:58:50;;;;;;;;;;;;;;;22.04;69.79;95686.66;5089786;28;20530;-68
2022/09/04 07:01:28;;;;;;;;;;;;;;;22.16;69.86;95695.75;5072952;28;20019;-67
2022/09/04 07:04:06;;;;;;;;;;;;;;;22.26;69.70;95698.59;5093264;28;20048;-68
2022/09/04 07:06:49;;;;;;;;;;;;;;;22.23;69.80;95698.56;5073702;28;20023;-68
2022/09/04 07:09:21;;;;;;;;;;;;;;;22.38;69.88;95694.13;5058623;28;20409;-64
2022/09/04 07:12:05;;;;;;;;;;;;;;;22.41;70.34;95696.09;5055383;28;20016;-63
2022/09/04 07:14:31;;;;;;;;;;;;;;;22.54;70.07;95703.66;5072908;28;20005;-65
2022/09/04 07:16:56;;;;;;;;;;;;;;;22.63;69.93;95697.97;5085252;28;20077;-66
2022/09/04 07:19:24;;;;;;;;;;;;;;;22.69;69.98;95701.13;5093447;28;20020;-66
2022/09/04 07:21:59;;;;;;;;;;;;;;;22.79;69.88;95706.69;5091450;28;20013;-65
2022/09/04 07:24:25;;;;;;;;;;;;;;;22.89;69.26;95709.94;5093163;28;20110;-64
2022/09/04 07:26:54;;;;;;;;;;;;;;;22.92;69.50;95709.97;5089731;28;20058;-65
2022/09/04 07:29:29;;;;;;;;;;;;;;;22.99;69.37;95709.28;5092374;28;20024;-64
2022/09/04 07:32:10;;;;;;;;;;;;;;;23.02;69.27;95712.03;5075237;28;20008;-64
2022/09/04 07:34:38;;;;;;;;;;;;;;;23.16;69.78;95714.13;5074319;28;20009;-64
2022/09/04 07:37:10;;;;;;;;;;;;;;;23.30;69.41;95711.56;5059399;28;20390;-66
2022/09/04 07:39:53;;;;;;;;;;;;;;;23.09;69.20;95714.06;5089193;28;20023;-67
2022/09/04 07:42:38;;;;;;;;;;;;;;;22.76;68.85;95720.19;5074444;28;20324;-65
2022/09/04 07:45:22;;;;;;;;;;;;;;;22.45;67.49;95727.53;5056125;28;20016;-66
2022/09/04 07:48:16;;;;;;;;;;;;;;;22.45;68.85;95721.34;5093050;28;20005;-67
2022/09/04 07:50:51;;;;;;;;;;;;;;;22.80;69.25;95727.22;5055336;28;20481;-66
2022/09/04 07:53:30;;;;;;;;;;;;;;;22.87;69.17;95720.34;5092512;28;20005;-66
2022/09/04 07:56:02;;;;;;;;;;;;;;;22.70;69.35;95733.31;5074462;28;20385;-63
2022/09/04 07:58:38;;;;;;;;;;;;;;;23.05;69.24;95743.84;5092423;28;20451;-65
2022/09/04 08:01:22;;;;;;;;;;;;;;;23.27;68.08;95741.38;5072136;28;20004;-65
2022/09/04 08:04:16;;;;;;;;;;;;;;;21.98;67.99;95749.63;5092469;28;20009;-65
2022/09/04 08:07:04;;;;;;;;;;;;;;;21.07;71.70;95759.16;5006560;28;20019;-66
2022/09/04 08:09:41;;;;;;;;;;;;;;;20.98;71.51;95758.56;5054491;28;20127;-65
2022/09/04 08:12:15;;;;;;;;;;;;;;;21.76;71.37;95751.19;5071718;28;20055;-65
2022/09/04 08:14:44;;;;;;;;;;;;;;;22.70;70.17;95757.72;5072207;28;20469;-64
2022/09/04 08:17:24;;;;;;;;;;;;;;;22.66;69.43;95761.50;5072018;28;20005;-65
2022/09/04 08:19:55;;;;;;;;;;;;;;;22.60;69.03;95761.06;5086893;28;20453;-68
2022/09/04 08:22:41;;;;;;;;;;;;;;;22.92;70.05;95760.72;5076914;28;20071;-66
2022/09/04 08:25:39;;;;;;;;;;;;;;;23.51;69.84;95765.31;5053013;28;20017;-63
2022/09/04 08:28:25;;;;;;;;;;;;;;;23.67;69.54;95765.13;5041912;28;20024;-65
2022/09/04 08:30:53;;;;;;;;;;;;;;;23.59;68.89;95771.59;5089856;28;20044;-65
2022/09/04 08:33:22;;;;;;;;;;;;;;;23.72;69.47;95769.44;5073782;28;20013;-65
2022/09/04 08:35:52;;;;;;;;;;;;;;;23.77;69.45;95775.31;5072053;28;20085;-65
2022/09/04 08:38:20;;;;;;;;;;;;;;;23.79;69.49;95770.25;5071942;28;20107;-66
2022/09/04 08:41:05;;;;;;;;;;;;;;;23.82;69.98;95774.97;5054039;28;20423;-66
2022/09/04 08:43:49;;;;;;;;;;;;;;;22.97;69.76;95773.97;5073389;28;20384;-66
2022/09/04 08:46:28;;;;;;;;;;;;;;;22.25;70.36;95772.91;5073551;28;20016;-66
2022/09/04 08:49:09;;;;;;;;;;;;;;;21.43;71.20;95787.72;5073643;28;20050;-66
2022/09/04 08:51:40;;;;;;;;;;;;;;;21.40;71.95;95787.69;5068316;28;20024;-66
2022/09/04 08:54:24;;;;;;;;;;;;;;;21.63;69.29;95793.13;5090629;28;20108;-67
2022/09/04 08:57:09;;;;;;;;;;;;;;;21.66;71.82;95741.75;5089058;28;20016;-65
2022/09/04 08:59:50;;;;;;;;;;;;;;;22.03;69.48;95787.25;5071318;28;20509;-66
2022/09/04 09:02:18;;;;;;;;;;;;;;;22.36;67.23;95788.56;5085343;28;20013;-66
2022/09/04 09:04:53;;;;;;;;;;;;;;;22.87;70.06;95791.63;5086877;28;20121;-70
2022/09/04 09:07:37;;;;;;;;;;;;;;;22.92;66.58;95785.91;5094618;28;20115;-69
2022/09/04 09:10:08;;;;;;;;;;;;;;;23.71;68.88;95779.53;5090671;28;20005;-72
2022/09/04 09:12:56;;;;;;;;;;;;;;;23.17;65.97;95782.75;5069355;28;20009;-73
2022/09/04 09:15:41;;;;;;;;;;;;;;;22.14;67.33;95785.53;5052914;28;20016;-72
2022/09/04 09:18:07;;;;;;;;;;;;;;;23.42;70.26;95780.34;5053006;28;20182;-66
2022/09/04 09:20:41;;;;;;;;;;;;;;;23.54;68.12;95785.50;5052923;28;20017;-66
2022/09/04 09:23:10;;;;;;;;;;;;;;;24.14;69.74;95777.19;5069744;28;20512;-66
2022/09/04 09:25:38;;;;;;;;;;;;;;;23.45;59.34;95776.88;5072650;28;20009;-66
2022/09/04 09:28:16;;;;;;;;;;;;;;;23.77;67.49;95779.97;5072296;28;20009;-66
2022/09/04 09:30:59;;;;;;;;;;;;;;;22.90;58.11;95784.75;5089651;28;20426;-67
2022/09/04 09:33:51;;;;;;;;;;;;;;;23.64;57.19;95779.44;5070530;28;20552;-67
2022/09/04 09:36:19;;;;;;;;;;;;;;;23.98;61.83;95779.38;5049899;28;20009;-67
2022/09/04 09:38:47;;;;;;;;;;;;;;;23.69;60.29;95784.53;5086740;28;20017;-69
2022/09/04 09:41:18;;;;;;;;;;;;;;;24.40;64.67;95776.25;5089545;28;20005;-74
2022/09/04 09:44:02;;;;;;;;;;;;;;;24.50;57.67;95772.81;5087822;28;20005;-67
2022/09/04 09:46:47;;;;;;;;;;;;;;;24.60;60.21;95768.63;5087638;28;20090;-67
2022/09/04 09:49:31;;;;;;;;;;;;;;;23.90;58.77;95766.88;5090024;28;20091;-67
2022/09/04 09:52:11;;;;;;;;;;;;;;;23.86;56.84;95767.63;5086293;28;20013;-67
2022/09/04 09:54:55;;;;;;;;;;;;;;;24.28;60.26;95761.00;5070165;28;20000;-67
2022/09/04 09:57:37;;;;;;;;;;;;;;;24.51;57.02;95768.16;5076425;28;20019;-67
2022/09/04 10:00:20;;;;;;;;;;;;;;;24.10;56.03;95765.50;5089299;28;20059;-67
2022/09/04 10:02:54;;;;;;;;;;;;;;;23.50;53.09;95763.75;5069154;28;20388;-67
2022/09/04 10:05:38;;;;;;;;;;;;;;;23.67;59.96;95761.63;5071927;28;20017;-67
2022/09/04 10:08:03;;;;;;;;;;;;;;;24.14;55.04;95755.44;5080943;28;20012;-67
2022/09/04 10:10:48;;;;;;;;;;;;;;;24.49;54.03;95756.88;5072030;28;20016;-66
2022/09/04 10:13:32;;;;;;;;;;;;;;;24.49;51.02;95762.34;5070441;28;20020;-66
2022/09/04 10:16:17;;;;;;;;;;;;;;;24.27;54.12;95770.31;5090109;28;20005;-66
2022/09/04 10:18:42;;;;;;;;;;;;;;;24.97;59.13;95764.94;5090055;28;20066;-67
2022/09/04 10:21:13;;;;;;;;;;;;;;;24.81;49.76;95763.28;5089912;28;20009;-67
2022/09/04 10:23:41;;;;;;;;;;;;;;;25.24;49.10;95774.44;5087558;28;20013;-67
2022/09/04 10:26:19;;;;;;;;;;;;;;;23.92;50.42;95772.72;5071823;28;20461;-67
2022/09/04 10:28:58;;;;;;;;;;;;;;;24.18;50.89;95774.50;5089896;28;20515;-67
2022/09/04 10:31:37;;;;;;;;;;;;;;;24.19;52.01;95774.13;5078556;28;20023;-66
2022/09/04 10:34:09;;;;;;;;;;;;;;;24.17;50.25;95775.66;5067460;28;20015;-66
2022/09/04 10:36:37;;;;;;;;;;;;;;;24.21;49.10;95771.00;5074394;28;20009;-66
2022/09/04 10:42:18;;;;;;;;;;;;;;;24.82;53.40;95769.50;5073385;28;20485;-67
2022/09/04 10:44:44;;;;;;;;;;;;;;;25.29;49.68;95774.06;5073851;28;20108;-67
2022/09/04 10:47:48;;;;;;;;;;;;;;;25.92;47.28;95771.91;5074172;28;20128;-67
2022/09/04 10:50:19;;;;;;;;;;;;;;;26.86;56.02;95763.28;5006364;28;20522;-67
2022/09/04 10:53:00;;;;;;;;;;;;;;;27.80;58.39;95761.75;4993511;28;20109;-67
2022/09/04 10:55:31;;;;;;;;;;;;;;;27.24;44.27;95763.59;5048868;28;20012;-67
2022/09/04 10:57:57;;;;;;;;;;;;;;;25.70;44.08;95779.25;5073212;28;20071;-66
2022/09/04 11:00:34;;;;;;;;;;;;;;;25.76;44.51;95776.94;5055048;28;20031;-67
2022/09/04 11:03:05;;;;;;;;;;;;;;;26.52;44.08;95767.66;5055011;28;20103;-66
2022/09/04 11:05:49;;;;;;;;;;;;;;;26.93;49.18;95766.00;5073009;28;20012;-67
2022/09/04 11:08:17;;;;;;;;;;;;;;;26.79;43.17;95763.31;5055713;28;20009;-67
2022/09/04 11:10:48;;;;;;;;;;;;;;;25.76;45.85;95775.00;5073022;28;20013;-66
2022/09/04 11:13:25;;;;;;;;;;;;;;;24.92;50.31;95768.00;5072661;28;20084;-66
2022/09/04 11:16:15;;;;;;;;;;;;;;;24.92;50.27;95779.69;5088533;28;20016;-66
2022/09/04 11:18:59;;;;;;;;;;;;;;;25.18;47.26;95780.59;5063989;28;20537;-67
2022/09/04 11:21:43;;;;;;;;;;;;;;;24.41;46.67;95777.81;5074975;28;20009;-66
2022/09/04 11:24:27;;;;;;;;;;;;;;;24.43;47.25;95780.16;5089535;28;20009;-66
2022/09/04 11:27:12;;;;;;;;;;;;;;;24.57;47.49;95775.59;5074603;28;20618;-66
2022/09/04 11:29:42;;;;;;;;;;;;;;;25.55;49.15;95769.47;5092108;28;20361;-66
2022/09/04 11:32:25;;;;;;;;;;;;;;;25.90;52.53;95772.31;5074366;28;20004;-66
2022/09/04 11:35:18;;;;;;;;;;;;;;;26.19;53.45;95767.63;5093023;28;20009;-66
2022/09/04 11:38:02;;;;;;;;;;;;;;;26.76;57.98;95772.28;5092801;28;20099;-66
2022/09/04 11:40:42;;;;;;;;;;;;;;;26.81;44.79;95769.13;5055253;28;20013;-66
2022/09/04 11:43:07;;;;;;;;;;;;;;;27.35;54.53;95769.78;5054292;28;20009;-66
2022/09/04 11:45:52;;;;;;;;;;;;;;;27.54;50.36;95768.53;5088090;28;20016;-66
2022/09/04 11:48:20;;;;;;;;;;;;;;;27.74;46.73;95771.53;5073593;28;20009;-66
2022/09/04 11:50:58;;;;;;;;;;;;;;;27.68;44.43;95762.19;5092462;28;20013;-66
2022/09/04 11:53:38;;;;;;;;;;;;;;;27.66;41.03;95765.31;5072034;28;20500;-66
2022/09/04 11:56:22;;;;;;;;;;;;;;;27.82;40.04;95756.66;5071971;28;20005;-66
2022/09/04 11:59:13;;;;;;;;;;;;;;;27.90;45.94;95760.13;5072355;28;20013;-66
2022/09/04 12:01:44;;;;;;;;;;;;;;;27.52;43.54;95767.34;5064178;28;20014;-66
2022/09/04 12:04:48;;;;;;;;;;;;;;;27.59;46.34;95768.09;5091562;28;20012;-66
2022/09/04 12:07:32;;;;;;;;;;;;;;;28.72;47.97;95759.47;5009960;28;20020;-66
2022/09/04 12:10:00;;;;;;;;;;;;;;;29.29;49.53;95763.56;5074443;28;20024;-66
2022/09/04 12:12:40;;;;;;;;;;;;;;;29.26;43.75;95765.16;5071512;28;20016;-66
2022/09/04 12:15:26;;;;;;;;;;;;;;;29.63;41.69;95767.03;5086659;28;20039;-66
2022/09/04 12:18:19;;;;;;;;;;;;;;;28.47;35.90;95767.91;5052490;28;20017;-66
2022/09/04 12:20:57;;;;;;;;;;;;;;;28.02;35.38;95756.91;5047733;28;20020;-66
2022/09/04 12:23:41;;;;;;;;;;;;;;;27.96;36.38;95764.78;5053332;28;20077;-65
2022/09/04 12:26:06;;;;;;;;;;;;;;;28.96;41.61;95757.66;5072556;28;20018;-66
2022/09/04 12:29:00;;;;;;;;;;;;;;;29.18;45.86;95764.47;5071423;28;20030;-66
2022/09/04 12:31:31;;;;;;;;;;;;;;;27.56;40.41;95768.13;5071556;28;20013;-66
2022/09/04 12:34:11;;;;;;;;;;;;;;;28.33;37.37;95768.81;5085953;28;20465;-66
2022/09/04 12:36:58;;;;;;;;;;;;;;;28.59;40.18;95756.47;5091626;28;20016;-65
2022/09/04 12:39:42;;;;;;;;;;;;;;;27.98;39.64;95756.94;5069990;28;20013;-65
2022/09/04 12:42:10;;;;;;;;;;;;;;;27.99;39.79;95766.69;5086365;28;20468;-65
2022/09/04 12:44:49;;;;;;;;;;;;;;;27.52;37.56;95764.63;5071130;28;20424;-66
2022/09/04 12:47:33;;;;;;;;;;;;;;;27.68;38.56;95771.16;5053220;28;20544;-65
2022/09/04 12:50:04;;;;;;;;;;;;;;;28.19;39.75;95758.72;5089321;28;20059;-66
2022/09/04 12:52:38;;;;;;;;;;;;;;;28.09;37.26;95773.25;5090908;28;20066;-65
2022/09/04 12:55:04;;;;;;;;;;;;;;;27.42;38.56;95769.72;5066065;28;20009;-65
2022/09/04 12:57:46;;;;;;;;;;;;;;;27.21;38.04;95761.63;5088798;28;20500;-65
2022/09/04 13:00:14;;;;;;;;;;;;;;;26.94;38.66;95764.81;5072213;28;20013;-66
2022/09/04 13:02:51;;;;;;;;;;;;;;;26.96;39.48;95761.69;5090717;28;20054;-65
2022/09/04 13:05:19;;;;;;;;;;;;;;;27.73;38.71;95761.78;5071728;28;20012;-65
2022/09/04 13:07:44;;;;;;;;;;;;;;;27.73;36.47;95759.84;5090956;28;20019;-65
2022/09/04 13:10:31;;;;;;;;;;;;;;;27.50;38.68;95764.25;5067786;28;20013;-65
2022/09/04 13:13:03;;;;;;;;;;;;;;;27.85;38.30;95768.75;5070128;28;20113;-66
2022/09/04 13:15:28;;;;;;;;;;;;;;;27.30;37.27;95772.91;5070756;28;20105;-66
2022/09/04 13:18:06;;;;;;;;;;;;;;;28.16;35.87;95765.03;5082395;28;20081;-65
2022/09/04 13:20:50;;;;;;;;;;;;;;;27.32;37.33;95770.56;5090838;28;20005;-65
2022/09/04 13:23:34;;;;;;;;;;;;;;;27.97;35.52;95766.31;5072123;28;20074;-66
2022/09/04 13:26:14;;;;;;;;;;;;;;;27.84;35.79;95770.69;5087633;28;20009;-66
2022/09/04 13:28:39;;;;;;;;;;;;;;;27.89;37.55;95772.22;5072584;28;20103;-66
2022/09/04 13:31:22;;;;;;;;;;;;;;;28.10;35.78;95771.31;5090497;28;20133;-66
2022/09/04 13:33:48;;;;;;;;;;;;;;;28.10;36.69;95771.31;5071953;28;20048;-66
2022/09/04 13:36:22;;;;;;;;;;;;;;;28.05;35.13;95777.19;5071148;28;20564;-66
2022/09/04 13:38:50;;;;;;;;;;;;;;;28.22;36.49;95765.38;5072556;28;20016;-66
2022/09/04 13:41:19;;;;;;;;;;;;;;;27.57;37.31;95770.44;5062482;28;20079;-66
2022/09/04 13:43:48;;;;;;;;;;;;;;;27.32;37.48;95767.81;5085362;28;20469;-66